createdAt,value
2022-11-24T00:00:19.386Z,8.39
2022-11-24T00:03:43.640Z,8.09
2022-11-24T00:06:47.473Z,8.14
2022-11-24T00:09:52.161Z,8.35
2022-11-24T00:12:55.842Z,8.39
2022-11-24T00:16:06.494Z,8.49
2022-11-24T00:19:14.600Z,8.53
2022-11-24T00:22:39.275Z,8.68
2022-11-24T00:25:44.258Z,8.50
2022-11-24T00:28:48.768Z,8.16
2022-11-24T00:31:52.420Z,8.10
2022-11-24T00:34:55.864Z,8.03
2022-11-24T00:37:59.517Z,8.38
2022-11-24T00:41:04.230Z,8.51
2022-11-24T00:44:08.249Z,8.61
2022-11-24T00:47:11.816Z,8.67
2022-11-24T00:50:15.665Z,8.78
2022-11-24T00:53:19.073Z,8.85
2022-11-24T00:56:24.365Z,8.89
2022-11-24T00:59:27.677Z,8.80
2022-11-24T01:02:31.453Z,8.87
2022-11-24T01:05:37.439Z,8.84
2022-11-24T01:08:42.247Z,8.75
2022-11-24T01:12:02.249Z,8.89
2022-11-24T01:15:06.839Z,9.10
2022-11-24T01:18:10.789Z,9.27
2022-11-24T01:21:15.501Z,9.29
2022-11-24T01:24:19.025Z,9.09
2022-11-24T01:27:24.077Z,9.11
2022-11-24T01:30:27.414Z,9.07
2022-11-24T01:33:31.088Z,8.84
2022-11-24T01:36:34.649Z,8.96
2022-11-24T01:39:38.253Z,8.97
2022-11-24T01:42:48.353Z,8.96
2022-11-24T01:45:52.038Z,9.20
2022-11-24T01:49:04.231Z,9.17
2022-11-24T01:52:12.312Z,9.25
2022-11-24T01:55:20.702Z,9.29
2022-11-24T01:58:31.010Z,9.40
2022-11-24T02:01:34.465Z,9.53
2022-11-24T02:04:59.635Z,9.45
2022-11-24T02:08:04.305Z,9.28
2022-11-24T02:11:08.018Z,9.40
2022-11-24T02:14:17.237Z,9.46
2022-11-24T02:17:20.882Z,9.53
2022-11-24T02:20:24.288Z,9.40
2022-11-24T02:23:38.869Z,9.48
2022-11-24T02:26:46.395Z,9.22
2022-11-24T02:29:50.573Z,9.31
2022-11-24T02:32:53.915Z,9.33
2022-11-24T02:35:57.674Z,9.26
2022-11-24T02:39:01.008Z,9.39
2022-11-24T02:42:11.355Z,9.18
2022-11-24T02:45:16.679Z,9.35
2022-11-24T02:48:20.290Z,9.36
2022-11-24T02:51:23.850Z,9.28
2022-11-24T02:54:27.563Z,9.14
2022-11-24T02:57:32.464Z,9.22
2022-11-24T03:00:36.313Z,9.17
2022-11-24T03:03:39.759Z,9.19
2022-11-24T03:06:43.677Z,9.23
2022-11-24T03:09:47.031Z,9.31
2022-11-24T03:12:52.018Z,9.37
2022-11-24T03:15:55.344Z,9.26
2022-11-24T03:18:59.004Z,9.19
2022-11-24T03:22:02.410Z,9.04
2022-11-24T03:25:24.964Z,9.17
2022-11-24T03:28:31.806Z,9.32
2022-11-24T03:31:36.123Z,9.32
2022-11-24T03:34:39.486Z,9.42
2022-11-24T03:37:45.060Z,9.14
2022-11-24T03:40:48.341Z,9.15
2022-11-24T03:43:53.402Z,9.17
2022-11-24T03:46:56.795Z,8.96
2022-11-24T03:50:00.379Z,9.15
2022-11-24T03:53:03.910Z,9.12
2022-11-24T03:56:07.989Z,9.25
2022-11-24T03:59:12.661Z,9.37
2022-11-24T04:02:16.327Z,9.38
2022-11-24T04:05:19.965Z,9.11
2022-11-24T04:08:23.608Z,9.07
2022-11-24T04:11:44.212Z,9.13
2022-11-24T04:14:49.256Z,9.12
2022-11-24T04:17:52.618Z,8.95
2022-11-24T04:20:56.497Z,8.69
2022-11-24T04:23:59.909Z,8.54
2022-11-24T04:27:03.621Z,8.85
2022-11-24T04:30:09.584Z,8.91
2022-11-24T04:33:14.118Z,9.11
2022-11-24T04:36:17.543Z,9.20
2022-11-24T04:39:25.094Z,9.28
2022-11-24T04:42:30.077Z,9.17
2022-11-24T04:45:35.089Z,9.08
2022-11-24T04:48:38.534Z,9.06
2022-11-24T04:51:43.101Z,8.78
2022-11-24T04:54:46.593Z,8.82
2022-11-24T04:57:50.328Z,8.99
2022-11-24T05:00:55.038Z,9.17
2022-11-24T05:03:59.586Z,9.32
2022-11-24T05:07:03.097Z,9.29
2022-11-24T05:10:25.085Z,9.36
2022-11-24T05:13:28.527Z,9.35
2022-11-24T05:16:33.724Z,9.12
2022-11-24T05:19:37.190Z,9.32
2022-11-24T05:22:41.022Z,9.35
2022-11-24T05:25:47.597Z,9.28
2022-11-24T05:28:51.774Z,9.19
2022-11-24T05:31:56.525Z,9.33
2022-11-24T05:35:02.213Z,9.26
2022-11-24T05:38:06.610Z,8.97
2022-11-24T05:41:10.410Z,8.97
2022-11-24T05:44:14.052Z,9.08
2022-11-24T05:47:19.391Z,8.94
2022-11-24T05:50:24.040Z,8.99
2022-11-24T05:53:27.836Z,8.91
2022-11-24T05:56:31.577Z,8.58
2022-11-24T05:59:35.418Z,8.81
2022-11-24T06:02:40.374Z,8.92
2022-11-24T06:05:48.160Z,8.96
2022-11-24T06:09:10.215Z,9.08
2022-11-24T06:12:14.569Z,9.18
2022-11-24T06:15:18.505Z,9.25
2022-11-24T06:18:23.669Z,9.12
2022-11-24T06:21:27.081Z,9.13
2022-11-24T06:24:30.832Z,9.23
2022-11-24T06:27:34.176Z,9.22
2022-11-24T06:30:37.872Z,9.30
2022-11-24T06:33:42.719Z,9.18
2022-11-24T06:36:47.033Z,9.15
2022-11-24T06:39:50.572Z,9.34
2022-11-24T06:42:54.323Z,9.41
2022-11-24T06:45:57.988Z,9.41
2022-11-24T06:49:03.153Z,9.42
2022-11-24T06:52:06.713Z,9.50
2022-11-24T06:55:10.841Z,9.56
2022-11-24T06:58:14.490Z,9.51
2022-11-24T07:01:19.135Z,9.42
2022-11-24T07:04:23.987Z,9.49
2022-11-24T07:07:27.748Z,9.53
2022-11-24T07:10:31.133Z,9.62
2022-11-24T07:13:35.426Z,9.54
2022-11-24T07:16:39.961Z,9.54
2022-11-24T07:19:45.219Z,9.72
2022-11-24T07:22:48.788Z,9.76
2022-11-24T07:25:52.563Z,9.79
2022-11-24T07:28:56.014Z,9.66
2022-11-24T07:32:05.228Z,9.72
2022-11-24T07:35:10.812Z,9.79
2022-11-24T07:38:14.635Z,9.84
2022-11-24T07:41:36.679Z,9.86
2022-11-24T07:44:40.760Z,9.86
2022-11-24T07:47:44.236Z,9.81
2022-11-24T07:50:55.326Z,9.88
2022-11-24T07:53:59.596Z,9.95
2022-11-24T07:57:03.324Z,9.97
2022-11-24T08:00:07.588Z,9.99
2022-11-24T08:03:11.497Z,10.04
2022-11-24T08:06:27.731Z,9.87
2022-11-24T08:09:34.156Z,9.96
2022-11-24T08:12:37.631Z,9.92
2022-11-24T08:15:41.383Z,10.02
2022-11-24T08:18:45.643Z,10.04
2022-11-24T08:21:50.794Z,10.12
2022-11-24T08:24:54.204Z,10.16
2022-11-24T08:27:58.106Z,10.16
2022-11-24T08:31:06.199Z,9.92
2022-11-24T08:34:10.849Z,9.72
2022-11-24T08:37:15.629Z,9.83
2022-11-24T08:40:19.374Z,9.95
2022-11-24T08:43:22.954Z,10.10
2022-11-24T08:46:26.715Z,10.07
2022-11-24T08:49:30.319Z,10.13
2022-11-24T08:52:35.412Z,10.17
2022-11-24T08:55:38.850Z,10.30
2022-11-24T08:58:43.301Z,10.32
2022-11-24T09:01:46.990Z,10.28
2022-11-24T09:04:51.193Z,10.29
2022-11-24T09:07:56.083Z,10.43
2022-11-24T09:11:03.823Z,10.51
2022-11-24T09:14:07.289Z,10.56
2022-11-24T09:17:11.700Z,10.58
2022-11-24T09:20:15.134Z,10.68
2022-11-24T09:23:21.266Z,10.56
2022-11-24T09:26:26.388Z,10.56
2022-11-24T09:29:31.275Z,10.51
2022-11-24T09:32:34.837Z,10.50
2022-11-24T09:35:39.916Z,10.45
2022-11-24T09:38:45.364Z,10.57
2022-11-24T09:42:05.278Z,10.72
2022-11-24T09:45:49.015Z,10.77
2022-11-24T09:48:52.337Z,10.83
2022-11-24T09:51:58.207Z,10.82
2022-11-24T09:55:14.143Z,10.76
2022-11-24T09:58:31.763Z,10.78
2022-11-24T10:01:41.617Z,10.81
2022-11-24T10:04:47.615Z,10.74
2022-11-24T10:08:11.922Z,10.85
2022-11-24T10:11:29.450Z,10.84
2022-11-24T10:15:01.628Z,10.75
2022-11-24T10:18:31.589Z,10.70
2022-11-24T10:22:04.701Z,10.79
2022-11-24T10:25:25.994Z,10.96
2022-11-24T10:28:39.126Z,10.96
2022-11-24T10:31:44.742Z,11.08
2022-11-24T10:34:53.444Z,11.14
2022-11-24T10:38:03.447Z,11.18
2022-11-24T10:41:13.422Z,11.26
2022-11-24T10:44:18.306Z,11.26
2022-11-24T10:47:23.032Z,11.18
2022-11-24T10:50:28.192Z,11.05
2022-11-24T10:53:33.726Z,11.17
2022-11-24T10:56:41.407Z,11.19
2022-11-24T10:59:46.798Z,11.27
2022-11-24T11:02:51.579Z,11.36
2022-11-24T11:05:58.681Z,11.31
2022-11-24T11:09:21.146Z,11.32
2022-11-24T11:12:45.717Z,11.42
2022-11-24T11:15:51.634Z,11.30
2022-11-24T11:18:55.654Z,11.34
2022-11-24T11:22:06.399Z,11.27
2022-11-24T11:25:22.296Z,11.32
2022-11-24T11:28:29.556Z,11.32
2022-11-24T11:31:35.808Z,11.33
2022-11-24T11:34:39.462Z,11.34
2022-11-24T11:37:45.285Z,11.33
2022-11-24T11:40:51.525Z,11.31
2022-11-24T11:44:06.158Z,11.40
2022-11-24T11:47:23.087Z,11.31
2022-11-24T11:50:39.221Z,11.45
2022-11-24T11:54:07.091Z,11.40
2022-11-24T11:57:18.784Z,11.50
2022-11-24T12:00:23.037Z,11.48
2022-11-24T12:04:03.468Z,11.26
2022-11-24T12:07:22.487Z,11.32
2022-11-24T12:10:35.255Z,11.50
2022-11-24T12:14:08.835Z,11.48
2022-11-24T12:17:22.451Z,11.60
2022-11-24T12:20:48.895Z,11.53
2022-11-24T12:24:04.695Z,11.59
2022-11-24T12:27:22.576Z,11.59
2022-11-24T12:30:29.468Z,11.65
2022-11-24T12:33:50.953Z,11.33
2022-11-24T12:37:20.193Z,11.39
2022-11-24T12:40:39.766Z,11.32
2022-11-24T12:43:52.047Z,11.25
2022-11-24T12:47:04.668Z,10.97
2022-11-24T12:50:11.634Z,11.14
2022-11-24T12:53:20.492Z,11.26
2022-11-24T12:56:30.005Z,11.20
2022-11-24T12:59:41.013Z,10.93
2022-11-24T13:03:07.938Z,10.98
2022-11-24T13:06:18.032Z,10.88
2022-11-24T13:09:23.377Z,10.90
2022-11-24T13:12:26.893Z,10.94
2022-11-24T13:15:45.681Z,10.97
2022-11-24T13:18:57.071Z,11.10
2022-11-24T13:22:14.940Z,11.26
2022-11-24T13:25:23.149Z,11.25
2022-11-24T13:29:08.949Z,11.22
2022-11-24T13:32:48.525Z,11.19
2022-11-24T13:36:28.789Z,11.20
2022-11-24T13:39:51.645Z,11.27
2022-11-24T13:43:26.721Z,10.91
2022-11-24T13:47:03.299Z,11.08
2022-11-24T13:50:15.212Z,11.16
2022-11-24T13:53:27.964Z,11.14
2022-11-24T13:56:33.126Z,10.99
2022-11-24T13:59:38.347Z,11.16
2022-11-24T14:02:45.396Z,11.22
2022-11-24T14:05:51.948Z,11.18
2022-11-24T14:08:56.680Z,11.18
2022-11-24T14:12:07.481Z,11.32
2022-11-24T14:15:24.241Z,11.27
2022-11-24T14:18:29.420Z,11.31
2022-11-24T14:21:37.578Z,11.40
2022-11-24T14:24:45.234Z,11.45
2022-11-24T14:27:49.171Z,11.49
2022-11-24T14:31:08.471Z,11.36
2022-11-24T14:34:19.266Z,11.42
2022-11-24T14:37:22.695Z,11.44
2022-11-24T14:40:43.599Z,11.43
2022-11-24T14:43:47.103Z,11.43
2022-11-24T14:46:52.554Z,11.48
2022-11-24T14:49:57.936Z,11.49
2022-11-24T14:53:02.300Z,11.50
2022-11-24T14:56:11.249Z,11.53
2022-11-24T14:59:23.316Z,11.47
2022-11-24T15:02:46.279Z,11.42
2022-11-24T15:06:19.970Z,11.40
2022-11-24T15:09:28.459Z,11.44
2022-11-24T15:12:34.971Z,11.48
2022-11-24T15:15:40.290Z,11.52
2022-11-24T15:18:48.011Z,11.53
2022-11-24T15:21:51.603Z,11.53
2022-11-24T15:24:55.768Z,11.53
2022-11-24T15:27:59.188Z,11.52
2022-11-24T15:31:04.954Z,11.58
2022-11-24T15:34:14.730Z,11.57
2022-11-24T15:37:18.449Z,11.42
2022-11-24T15:40:22.211Z,11.45
2022-11-24T15:43:30.992Z,11.48
2022-11-24T15:46:38.573Z,11.55
2022-11-24T15:49:43.949Z,11.54
2022-11-24T15:52:48.793Z,11.54
2022-11-24T15:55:53.796Z,11.53
2022-11-24T15:58:57.272Z,11.57
2022-11-24T16:02:01.038Z,11.51
2022-11-24T16:05:06.691Z,11.45
2022-11-24T16:08:14.182Z,11.45
2022-11-24T16:11:17.624Z,11.42
2022-11-24T16:14:21.515Z,11.42
2022-11-24T16:17:25.091Z,11.44
2022-11-24T16:20:30.170Z,11.42
2022-11-24T16:23:35.291Z,11.44
2022-11-24T16:26:39.453Z,11.45
2022-11-24T16:29:43.305Z,11.39
2022-11-24T16:32:47.166Z,11.41
2022-11-24T16:35:52.002Z,11.37
2022-11-24T16:38:55.740Z,11.36
2022-11-24T16:41:59.192Z,11.29
2022-11-24T16:45:03.347Z,11.33
2022-11-24T16:48:07.296Z,11.31
2022-11-24T16:51:13.693Z,11.34
2022-11-24T16:54:17.149Z,11.23
2022-11-24T16:57:20.951Z,11.21
2022-11-24T17:00:24.850Z,11.18
2022-11-24T17:03:33.254Z,11.27
2022-11-24T17:06:38.036Z,11.22
2022-11-24T17:09:41.729Z,11.22
2022-11-24T17:12:45.209Z,11.15
2022-11-24T17:15:53.947Z,11.01
2022-11-24T17:18:58.859Z,10.96
2022-11-24T17:22:04.194Z,11.01
2022-11-24T17:25:08.754Z,10.93
2022-11-24T17:28:12.606Z,10.93
2022-11-24T17:31:21.420Z,10.89
2022-11-24T17:34:25.198Z,10.80
2022-11-24T17:37:32.178Z,10.80
2022-11-24T17:40:35.996Z,10.88
2022-11-24T17:43:39.811Z,10.89
2022-11-24T17:46:43.628Z,10.95
2022-11-24T17:49:47.055Z,10.83
2022-11-24T17:52:52.276Z,10.86
2022-11-24T17:55:55.722Z,10.60
2022-11-24T17:59:01.832Z,10.68
2022-11-24T18:02:05.595Z,10.59
2022-11-24T18:05:10.374Z,10.52
2022-11-24T18:08:15.177Z,10.53
2022-11-24T18:11:24.685Z,10.63
2022-11-24T18:14:30.934Z,10.68
2022-11-24T18:17:34.767Z,10.27
2022-11-24T18:20:38.149Z,10.41
2022-11-24T18:23:44.051Z,10.34
2022-11-24T18:26:47.492Z,10.26
2022-11-24T18:29:56.038Z,10.46
2022-11-24T18:33:00.125Z,10.51
2022-11-24T18:36:06.872Z,10.57
2022-11-24T18:39:17.756Z,10.56
2022-11-24T18:42:22.407Z,10.59
2022-11-24T18:45:25.890Z,10.64
2022-11-24T18:48:29.612Z,10.67
2022-11-24T18:51:33.106Z,10.56
2022-11-24T18:54:38.403Z,9.95
2022-11-24T18:57:41.905Z,9.77
2022-11-24T19:00:45.686Z,9.47
2022-11-24T19:03:50.829Z,9.44
2022-11-24T19:06:54.572Z,9.54
2022-11-24T19:09:59.482Z,9.68
2022-11-24T19:13:03.275Z,9.80
2022-11-24T19:16:14.765Z,9.91
2022-11-24T19:19:18.648Z,9.97
2022-11-24T19:22:24.066Z,10.04
2022-11-24T19:25:29.658Z,10.18
2022-11-24T19:28:36.160Z,10.16
2022-11-24T19:31:40.448Z,10.10
2022-11-24T19:34:43.863Z,10.32
2022-11-24T19:37:47.614Z,10.35
2022-11-24T19:41:00.514Z,10.32
2022-11-24T19:44:04.468Z,10.35
2022-11-24T19:47:07.927Z,10.35
2022-11-24T19:50:12.887Z,10.45
2022-11-24T19:53:16.340Z,10.53
2022-11-24T19:56:23.371Z,10.51
2022-11-24T19:59:26.767Z,10.52
2022-11-24T20:02:31.746Z,10.55
2022-11-24T20:05:35.380Z,10.68
2022-11-24T20:08:40.059Z,10.67
2022-11-24T20:11:45.229Z,10.71
2022-11-24T20:14:48.920Z,10.65
2022-11-24T20:17:52.664Z,10.71
2022-11-24T20:20:56.406Z,10.76
2022-11-24T20:24:01.677Z,10.76
2022-11-24T20:27:06.998Z,10.88
2022-11-24T20:30:11.535Z,10.83
2022-11-24T20:33:15.472Z,10.82
2022-11-24T20:36:20.936Z,10.68
2022-11-24T20:39:26.526Z,10.55
2022-11-24T20:42:32.324Z,10.63
2022-11-24T20:45:37.430Z,10.50
2022-11-24T20:48:41.358Z,10.64
2022-11-24T20:51:47.717Z,10.65
2022-11-24T20:54:51.324Z,10.57
2022-11-24T20:57:56.663Z,10.53
2022-11-24T21:01:21.734Z,10.60
2022-11-24T21:04:27.847Z,10.66
2022-11-24T21:07:31.328Z,10.66
2022-11-24T21:10:35.174Z,10.75
2022-11-24T21:13:43.790Z,10.79
2022-11-24T21:16:47.646Z,10.77
2022-11-24T21:19:51.546Z,10.69
2022-11-24T21:22:55.431Z,10.62
2022-11-24T21:26:05.177Z,10.64
2022-11-24T21:29:14.069Z,10.63
2022-11-24T21:32:18.108Z,10.51
2022-11-24T21:35:40.233Z,10.63
2022-11-24T21:38:43.916Z,10.52
2022-11-24T21:41:47.733Z,10.57
2022-11-24T21:44:52.538Z,10.53
2022-11-24T21:47:57.878Z,10.65
2022-11-24T21:51:02.670Z,10.72
2022-11-24T21:54:06.894Z,10.77
2022-11-24T21:57:11.114Z,10.80
2022-11-24T22:00:17.934Z,10.79
2022-11-24T22:03:22.151Z,10.85
2022-11-24T22:06:25.828Z,10.77
2022-11-24T22:09:29.161Z,10.79
2022-11-24T22:12:33.015Z,10.81
2022-11-24T22:15:37.802Z,10.74
2022-11-24T22:18:43.067Z,10.74
2022-11-24T22:21:46.497Z,10.60
2022-11-24T22:24:50.180Z,10.62
2022-11-24T22:27:53.663Z,10.66
2022-11-24T22:30:58.753Z,10.58
2022-11-24T22:34:02.396Z,10.59
2022-11-24T22:37:06.097Z,10.57
2022-11-24T22:40:10.301Z,10.16
2022-11-24T22:43:16.725Z,10.14
2022-11-24T22:46:27.075Z,10.36
2022-11-24T22:49:30.834Z,10.41
2022-11-24T22:52:34.522Z,10.07
2022-11-24T22:55:38.265Z,9.86
2022-11-24T22:58:42.166Z,10.01
2022-11-24T23:01:47.218Z,9.97
2022-11-24T23:04:50.600Z,9.95
2022-11-24T23:07:54.343Z,9.39
2022-11-24T23:11:02.205Z,9.78
2022-11-24T23:14:07.053Z,9.91
2022-11-24T23:17:11.983Z,9.89
2022-11-24T23:20:16.206Z,10.12
2022-11-24T23:23:19.607Z,10.22
2022-11-24T23:26:25.997Z,10.27
2022-11-24T23:29:29.461Z,10.35
2022-11-24T23:32:34.574Z,10.37
2022-11-24T23:35:37.943Z,10.34
2022-11-24T23:38:42.296Z,10.28
2022-11-24T23:41:45.619Z,10.17
2022-11-24T23:44:49.314Z,10.27
2022-11-24T23:47:55.800Z,10.28
2022-11-24T23:51:04.989Z,10.33
2022-11-24T23:54:09.662Z,10.26
2022-11-24T23:57:13.360Z,10.19
